sensor_id;sensor_type;location;lat;lon;timestamp;P1;durP1;ratioP1;P2;durP2;ratioP2
9140;SDS011;46330;50.822;7.126;2023-12-07T00:00:33;23.30;;;13.18;;
9140;SDS011;46330;50.822;7.126;2023-12-07T00:03:01;21.35;;;13.90;;
9140;SDS011;46330;50.822;7.126;2023-12-07T00:05:29;22.85;;;13.70;;
9140;SDS011;46330;50.822;7.126;2023-12-07T00:07:56;36.28;;;16.65;;
9140;SDS011;46330;50.822;7.126;2023-12-07T00:10:26;25.42;;;14.45;;
9140;SDS011;46330;50.822;7.126;2023-12-07T00:12:53;24.52;;;13.20;;
9140;SDS011;46330;50.822;7.126;2023-12-07T00:15:21;27.33;;;15.25;;
9140;SDS011;46330;50.822;7.126;2023-12-07T00:17:49;31.98;;;15.73;;
9140;SDS011;46330;50.822;7.126;2023-12-07T00:20:16;29.70;;;15.57;;
9140;SDS011;46330;50.822;7.126;2023-12-07T00:22:44;30.90;;;16.48;;
9140;SDS011;46330;50.822;7.126;2023-12-07T00:25:13;32.22;;;16.35;;
9140;SDS011;46330;50.822;7.126;2023-12-07T00:27:43;26.35;;;15.63;;
9140;SDS011;46330;50.822;7.126;2023-12-07T00:30:12;31.67;;;16.35;;
9140;SDS011;46330;50.822;7.126;2023-12-07T00:32:40;28.83;;;16.08;;
9140;SDS011;46330;50.822;7.126;2023-12-07T00:35:10;27.17;;;16.13;;
9140;SDS011;46330;50.822;7.126;2023-12-07T00:37:38;26.48;;;14.93;;
9140;SDS011;46330;50.822;7.126;2023-12-07T00:40:06;27.90;;;15.73;;
9140;SDS011;46330;50.822;7.126;2023-12-07T00:42:35;27.17;;;14.73;;
9140;SDS011;46330;50.822;7.126;2023-12-07T00:45:04;28.13;;;15.57;;
9140;SDS011;46330;50.822;7.126;2023-12-07T00:47:32;31.00;;;14.73;;
9140;SDS011;46330;50.822;7.126;2023-12-07T00:50:00;23.48;;;14.00;;
9140;SDS011;46330;50.822;7.126;2023-12-07T00:52:28;27.15;;;14.43;;
9140;SDS011;46330;50.822;7.126;2023-12-07T00:54:56;26.33;;;14.13;;
9140;SDS011;46330;50.822;7.126;2023-12-07T00:57:37;24.60;;;14.32;;
9140;SDS011;46330;50.822;7.126;2023-12-07T01:00:07;27.33;;;14.63;;
9140;SDS011;46330;50.822;7.126;2023-12-07T01:02:36;23.40;;;14.38;;
9140;SDS011;46330;50.822;7.126;2023-12-07T01:05:04;26.83;;;13.80;;
9140;SDS011;46330;50.822;7.126;2023-12-07T01:07:33;26.70;;;14.25;;
9140;SDS011;46330;50.822;7.126;2023-12-07T01:10:01;27.75;;;13.68;;
9140;SDS011;46330;50.822;7.126;2023-12-07T01:12:29;21.83;;;13.65;;
9140;SDS011;46330;50.822;7.126;2023-12-07T01:14:57;21.35;;;12.75;;
9140;SDS011;46330;50.822;7.126;2023-12-07T01:17:26;23.33;;;12.85;;
9140;SDS011;46330;50.822;7.126;2023-12-07T01:19:54;24.38;;;12.50;;
9140;SDS011;46330;50.822;7.126;2023-12-07T01:22:22;25.00;;;13.18;;
9140;SDS011;46330;50.822;7.126;2023-12-07T01:24:51;21.67;;;12.80;;
9140;SDS011;46330;50.822;7.126;2023-12-07T01:27:18;21.05;;;13.10;;
9140;SDS011;46330;50.822;7.126;2023-12-07T01:29:46;21.42;;;12.70;;
9140;SDS011;46330;50.822;7.126;2023-12-07T01:32:15;23.45;;;12.95;;
9140;SDS011;46330;50.822;7.126;2023-12-07T01:34:46;21.13;;;12.23;;
9140;SDS011;46330;50.822;7.126;2023-12-07T01:37:14;22.23;;;12.57;;
9140;SDS011;46330;50.822;7.126;2023-12-07T01:39:42;21.40;;;12.90;;
9140;SDS011;46330;50.822;7.126;2023-12-07T01:42:10;22.48;;;13.20;;
9140;SDS011;46330;50.822;7.126;2023-12-07T01:44:38;21.05;;;12.52;;
9140;SDS011;46330;50.822;7.126;2023-12-07T01:47:06;25.67;;;12.20;;
9140;SDS011;46330;50.822;7.126;2023-12-07T01:49:36;19.85;;;12.65;;
9140;SDS011;46330;50.822;7.126;2023-12-07T01:52:06;22.55;;;12.95;;
9140;SDS011;46330;50.822;7.126;2023-12-07T01:54:36;23.20;;;13.27;;
9140;SDS011;46330;50.822;7.126;2023-12-07T01:57:05;19.23;;;12.48;;
9140;SDS011;46330;50.822;7.126;2023-12-07T01:59:33;21.52;;;12.57;;
9140;SDS011;46330;50.822;7.126;2023-12-07T02:02:01;29.20;;;14.32;;
9140;SDS011;46330;50.822;7.126;2023-12-07T02:04:29;25.35;;;13.95;;
9140;SDS011;46330;50.822;7.126;2023-12-07T02:06:58;25.90;;;14.15;;
9140;SDS011;46330;50.822;7.126;2023-12-07T02:09:30;21.92;;;12.98;;
9140;SDS011;46330;50.822;7.126;2023-12-07T02:11:58;20.92;;;12.77;;
9140;SDS011;46330;50.822;7.126;2023-12-07T02:14:27;19.45;;;11.85;;
9140;SDS011;46330;50.822;7.126;2023-12-07T02:16:56;20.40;;;12.60;;
9140;SDS011;46330;50.822;7.126;2023-12-07T02:19:39;22.15;;;12.32;;
9140;SDS011;46330;50.822;7.126;2023-12-07T02:25:01;20.33;;;11.63;;
9140;SDS011;46330;50.822;7.126;2023-12-07T02:27:35;20.38;;;12.50;;
9140;SDS011;46330;50.822;7.126;2023-12-07T02:30:04;25.98;;;12.45;;
9140;SDS011;46330;50.822;7.126;2023-12-07T02:32:34;22.23;;;12.10;;
9140;SDS011;46330;50.822;7.126;2023-12-07T02:35:02;24.98;;;12.60;;
9140;SDS011;46330;50.822;7.126;2023-12-07T02:37:32;22.95;;;13.02;;
9140;SDS011;46330;50.822;7.126;2023-12-07T02:40:05;21.75;;;12.50;;
9140;SDS011;46330;50.822;7.126;2023-12-07T02:42:38;22.65;;;12.57;;
9140;SDS011;46330;50.822;7.126;2023-12-07T02:45:07;22.13;;;12.77;;
9140;SDS011;46330;50.822;7.126;2023-12-07T02:47:36;20.27;;;11.77;;
9140;SDS011;46330;50.822;7.126;2023-12-07T02:50:05;25.95;;;13.57;;
9140;SDS011;46330;50.822;7.126;2023-12-07T02:52:34;25.95;;;13.05;;
9140;SDS011;46330;50.822;7.126;2023-12-07T02:55:03;22.05;;;12.68;;
9140;SDS011;46330;50.822;7.126;2023-12-07T02:57:32;20.35;;;12.85;;
9140;SDS011;46330;50.822;7.126;2023-12-07T03:00:02;23.75;;;12.23;;
9140;SDS011;46330;50.822;7.126;2023-12-07T03:02:33;25.63;;;13.18;;
9140;SDS011;46330;50.822;7.126;2023-12-07T03:05:02;24.58;;;14.02;;
9140;SDS011;46330;50.822;7.126;2023-12-07T03:07:31;24.35;;;13.57;;
9140;SDS011;46330;50.822;7.126;2023-12-07T03:09:59;23.05;;;13.38;;
9140;SDS011;46330;50.822;7.126;2023-12-07T03:12:27;23.98;;;13.15;;
9140;SDS011;46330;50.822;7.126;2023-12-07T03:14:55;20.70;;;11.38;;
9140;SDS011;46330;50.822;7.126;2023-12-07T03:17:24;19.45;;;12.00;;
9140;SDS011;46330;50.822;7.126;2023-12-07T03:19:52;22.02;;;12.50;;
9140;SDS011;46330;50.822;7.126;2023-12-07T03:22:20;22.00;;;12.40;;
9140;SDS011;46330;50.822;7.126;2023-12-07T03:24:50;22.98;;;11.70;;
9140;SDS011;46330;50.822;7.126;2023-12-07T03:27:19;20.58;;;11.88;;
9140;SDS011;46330;50.822;7.126;2023-12-07T03:29:47;21.58;;;12.82;;
9140;SDS011;46330;50.822;7.126;2023-12-07T03:32:15;24.95;;;13.23;;
9140;SDS011;46330;50.822;7.126;2023-12-07T03:34:44;20.23;;;12.75;;
9140;SDS011;46330;50.822;7.126;2023-12-07T03:37:12;20.67;;;12.57;;
9140;SDS011;46330;50.822;7.126;2023-12-07T03:39:40;22.15;;;12.32;;
9140;SDS011;46330;50.822;7.126;2023-12-07T03:42:08;19.58;;;12.13;;
9140;SDS011;46330;50.822;7.126;2023-12-07T03:44:56;20.73;;;12.80;;
9140;SDS011;46330;50.822;7.126;2023-12-07T03:47:24;21.60;;;12.18;;
9140;SDS011;46330;50.822;7.126;2023-12-07T03:49:53;20.33;;;12.73;;
9140;SDS011;46330;50.822;7.126;2023-12-07T03:52:21;21.20;;;11.90;;
9140;SDS011;46330;50.822;7.126;2023-12-07T03:54:49;22.30;;;12.48;;
9140;SDS011;46330;50.822;7.126;2023-12-07T03:57:17;21.15;;;12.35;;
9140;SDS011;46330;50.822;7.126;2023-12-07T03:59:45;21.25;;;11.93;;
9140;SDS011;46330;50.822;7.126;2023-12-07T04:02:13;20.15;;;11.80;;
9140;SDS011;46330;50.822;7.126;2023-12-07T04:04:41;19.05;;;12.60;;
9140;SDS011;46330;50.822;7.126;2023-12-07T04:07:10;17.88;;;11.23;;
9140;SDS011;46330;50.822;7.126;2023-12-07T04:09:38;22.92;;;11.77;;
9140;SDS011;46330;50.822;7.126;2023-12-07T04:12:06;40.85;;;20.75;;
9140;SDS011;46330;50.822;7.126;2023-12-07T04:14:34;22.73;;;13.82;;
9140;SDS011;46330;50.822;7.126;2023-12-07T04:17:02;19.13;;;11.60;;
9140;SDS011;46330;50.822;7.126;2023-12-07T04:19:30;24.02;;;12.80;;
9140;SDS011;46330;50.822;7.126;2023-12-07T04:21:58;23.20;;;12.82;;
9140;SDS011;46330;50.822;7.126;2023-12-07T04:24:27;23.38;;;12.65;;
9140;SDS011;46330;50.822;7.126;2023-12-07T04:26:55;17.58;;;11.13;;
9140;SDS011;46330;50.822;7.126;2023-12-07T04:29:23;17.73;;;10.60;;
9140;SDS011;46330;50.822;7.126;2023-12-07T04:31:51;21.95;;;11.15;;
9140;SDS011;46330;50.822;7.126;2023-12-07T04:34:19;19.45;;;10.25;;
9140;SDS011;46330;50.822;7.126;2023-12-07T04:36:47;17.75;;;10.27;;
9140;SDS011;46330;50.822;7.126;2023-12-07T04:39:17;17.30;;;10.35;;
9140;SDS011;46330;50.822;7.126;2023-12-07T04:41:46;19.95;;;10.60;;
9140;SDS011;46330;50.822;7.126;2023-12-07T04:44:14;15.25;;;10.07;;
9140;SDS011;46330;50.822;7.126;2023-12-07T04:46:42;19.27;;;9.82;;
9140;SDS011;46330;50.822;7.126;2023-12-07T04:49:10;22.70;;;11.13;;
9140;SDS011;46330;50.822;7.126;2023-12-07T04:51:38;17.88;;;10.93;;
9140;SDS011;46330;50.822;7.126;2023-12-07T04:54:08;21.27;;;11.50;;
9140;SDS011;46330;50.822;7.126;2023-12-07T04:56:46;20.80;;;11.30;;
9140;SDS011;46330;50.822;7.126;2023-12-07T04:59:15;19.55;;;11.73;;
9140;SDS011;46330;50.822;7.126;2023-12-07T05:01:44;21.42;;;12.55;;
9140;SDS011;46330;50.822;7.126;2023-12-07T05:04:12;24.75;;;12.98;;
9140;SDS011;46330;50.822;7.126;2023-12-07T05:06:40;21.50;;;11.80;;
9140;SDS011;46330;50.822;7.126;2023-12-07T05:09:08;21.98;;;13.00;;
9140;SDS011;46330;50.822;7.126;2023-12-07T05:11:37;23.27;;;14.82;;
9140;SDS011;46330;50.822;7.126;2023-12-07T05:14:06;27.20;;;14.05;;
9140;SDS011;46330;50.822;7.126;2023-12-07T05:16:34;23.55;;;12.27;;
9140;SDS011;46330;50.822;7.126;2023-12-07T05:19:02;19.75;;;10.85;;
9140;SDS011;46330;50.822;7.126;2023-12-07T05:21:30;17.08;;;9.88;;
9140;SDS011;46330;50.822;7.126;2023-12-07T05:23:58;18.00;;;9.70;;
9140;SDS011;46330;50.822;7.126;2023-12-07T05:26:26;19.05;;;10.32;;
9140;SDS011;46330;50.822;7.126;2023-12-07T05:28:56;14.88;;;9.40;;
9140;SDS011;46330;50.822;7.126;2023-12-07T05:31:26;17.92;;;9.65;;
9140;SDS011;46330;50.822;7.126;2023-12-07T05:33:55;19.45;;;10.27;;
9140;SDS011;46330;50.822;7.126;2023-12-07T05:36:23;19.17;;;10.82;;
9140;SDS011;46330;50.822;7.126;2023-12-07T05:38:52;15.90;;;10.55;;
9140;SDS011;46330;50.822;7.126;2023-12-07T05:41:20;16.42;;;10.13;;
9140;SDS011;46330;50.822;7.126;2023-12-07T05:43:48;17.80;;;10.32;;
9140;SDS011;46330;50.822;7.126;2023-12-07T05:46:16;42.70;;;24.02;;
9140;SDS011;46330;50.822;7.126;2023-12-07T05:48:45;20.60;;;11.80;;
9140;SDS011;46330;50.822;7.126;2023-12-07T05:51:14;18.10;;;11.40;;
9140;SDS011;46330;50.822;7.126;2023-12-07T05:53:43;18.83;;;11.45;;
9140;SDS011;46330;50.822;7.126;2023-12-07T05:56:12;17.17;;;10.52;;
9140;SDS011;46330;50.822;7.126;2023-12-07T05:58:40;19.40;;;11.50;;
9140;SDS011;46330;50.822;7.126;2023-12-07T06:01:08;23.30;;;12.90;;
9140;SDS011;46330;50.822;7.126;2023-12-07T06:03:36;17.00;;;10.82;;
9140;SDS011;46330;50.822;7.126;2023-12-07T06:06:06;17.63;;;11.00;;
9140;SDS011;46330;50.822;7.126;2023-12-07T06:08:34;15.30;;;9.73;;
9140;SDS011;46330;50.822;7.126;2023-12-07T06:11:02;15.85;;;9.50;;
9140;SDS011;46330;50.822;7.126;2023-12-07T06:13:29;17.08;;;10.10;;
9140;SDS011;46330;50.822;7.126;2023-12-07T06:15:57;16.10;;;9.80;;
9140;SDS011;46330;50.822;7.126;2023-12-07T06:18:25;17.35;;;10.10;;
9140;SDS011;46330;50.822;7.126;2023-12-07T06:20:53;20.17;;;10.98;;
9140;SDS011;46330;50.822;7.126;2023-12-07T06:23:23;17.55;;;10.13;;
9140;SDS011;46330;50.822;7.126;2023-12-07T06:25:51;17.05;;;9.45;;
9140;SDS011;46330;50.822;7.126;2023-12-07T06:28:19;19.13;;;11.50;;
9140;SDS011;46330;50.822;7.126;2023-12-07T06:30:47;16.17;;;9.63;;
9140;SDS011;46330;50.822;7.126;2023-12-07T06:33:15;19.40;;;10.55;;
9140;SDS011;46330;50.822;7.126;2023-12-07T06:35:43;17.58;;;10.63;;
9140;SDS011;46330;50.822;7.126;2023-12-07T06:38:13;20.23;;;12.13;;
9140;SDS011;46330;50.822;7.126;2023-12-07T06:40:42;19.55;;;10.23;;
9140;SDS011;46330;50.822;7.126;2023-12-07T06:43:10;22.80;;;12.48;;
9140;SDS011;46330;50.822;7.126;2023-12-07T06:45:38;15.95;;;9.50;;
9140;SDS011;46330;50.822;7.126;2023-12-07T06:48:06;14.43;;;9.18;;
9140;SDS011;46330;50.822;7.126;2023-12-07T06:50:34;29.25;;;13.73;;
9140;SDS011;46330;50.822;7.126;2023-12-07T06:53:02;24.05;;;11.60;;
9140;SDS011;46330;50.822;7.126;2023-12-07T06:55:30;42.28;;;14.93;;
9140;SDS011;46330;50.822;7.126;2023-12-07T06:58:04;33.30;;;12.55;;
9140;SDS011;46330;50.822;7.126;2023-12-07T07:00:32;65.53;;;19.85;;
9140;SDS011;46330;50.822;7.126;2023-12-07T07:03:01;36.67;;;15.40;;
9140;SDS011;46330;50.822;7.126;2023-12-07T07:05:29;20.33;;;10.52;;
9140;SDS011;46330;50.822;7.126;2023-12-07T07:07:57;21.70;;;10.82;;
9140;SDS011;46330;50.822;7.126;2023-12-07T07:10:25;22.15;;;10.73;;
9140;SDS011;46330;50.822;7.126;2023-12-07T07:12:53;19.83;;;10.23;;
9140;SDS011;46330;50.822;7.126;2023-12-07T07:15:22;19.38;;;10.60;;
9140;SDS011;46330;50.822;7.126;2023-12-07T07:17:51;21.83;;;10.70;;
9140;SDS011;46330;50.822;7.126;2023-12-07T07:20:19;19.08;;;10.85;;
9140;SDS011;46330;50.822;7.126;2023-12-07T07:22:48;24.63;;;11.45;;
9140;SDS011;46330;50.822;7.126;2023-12-07T07:25:16;21.50;;;10.93;;
9140;SDS011;46330;50.822;7.126;2023-12-07T07:27:46;17.83;;;10.52;;
9140;SDS011;46330;50.822;7.126;2023-12-07T07:30:14;20.45;;;9.88;;
9140;SDS011;46330;50.822;7.126;2023-12-07T07:32:44;17.52;;;10.45;;
9140;SDS011;46330;50.822;7.126;2023-12-07T07:35:11;19.85;;;10.10;;
9140;SDS011;46330;50.822;7.126;2023-12-07T07:37:40;25.38;;;12.10;;
9140;SDS011;46330;50.822;7.126;2023-12-07T07:40:09;17.45;;;10.48;;
9140;SDS011;46330;50.822;7.126;2023-12-07T07:42:38;19.00;;;9.20;;
9140;SDS011;46330;50.822;7.126;2023-12-07T07:45:07;20.17;;;11.15;;
9140;SDS011;46330;50.822;7.126;2023-12-07T07:47:35;15.85;;;8.77;;
9140;SDS011;46330;50.822;7.126;2023-12-07T07:50:05;21.35;;;11.32;;
9140;SDS011;46330;50.822;7.126;2023-12-07T07:52:34;18.15;;;10.55;;
9140;SDS011;46330;50.822;7.126;2023-12-07T07:55:03;19.98;;;11.05;;
9140;SDS011;46330;50.822;7.126;2023-12-07T07:57:32;18.75;;;11.63;;
9140;SDS011;46330;50.822;7.126;2023-12-07T08:00:00;20.27;;;10.93;;
9140;SDS011;46330;50.822;7.126;2023-12-07T08:02:30;22.02;;;12.32;;
9140;SDS011;46330;50.822;7.126;2023-12-07T08:04:57;24.35;;;11.77;;
9140;SDS011;46330;50.822;7.126;2023-12-07T08:07:27;25.42;;;12.40;;
9140;SDS011;46330;50.822;7.126;2023-12-07T08:09:55;20.55;;;10.68;;
9140;SDS011;46330;50.822;7.126;2023-12-07T08:12:23;23.80;;;12.07;;
9140;SDS011;46330;50.822;7.126;2023-12-07T08:14:51;23.33;;;12.20;;
9140;SDS011;46330;50.822;7.126;2023-12-07T08:17:19;24.95;;;12.95;;
9140;SDS011;46330;50.822;7.126;2023-12-07T08:19:48;23.50;;;13.13;;
9140;SDS011;46330;50.822;7.126;2023-12-07T08:22:16;28.00;;;13.05;;
9140;SDS011;46330;50.822;7.126;2023-12-07T08:24:45;26.88;;;13.68;;
9140;SDS011;46330;50.822;7.126;2023-12-07T08:27:26;26.40;;;13.70;;
9140;SDS011;46330;50.822;7.126;2023-12-07T08:29:54;31.80;;;15.75;;
9140;SDS011;46330;50.822;7.126;2023-12-07T08:32:22;25.98;;;14.23;;
9140;SDS011;46330;50.822;7.126;2023-12-07T08:34:52;28.10;;;14.95;;
9140;SDS011;46330;50.822;7.126;2023-12-07T08:37:21;25.05;;;13.70;;
9140;SDS011;46330;50.822;7.126;2023-12-07T08:39:50;27.60;;;15.18;;
9140;SDS011;46330;50.822;7.126;2023-12-07T08:42:18;27.13;;;13.82;;
9140;SDS011;46330;50.822;7.126;2023-12-07T08:44:46;25.63;;;14.00;;
9140;SDS011;46330;50.822;7.126;2023-12-07T08:47:14;27.50;;;14.38;;
9140;SDS011;46330;50.822;7.126;2023-12-07T08:49:42;25.98;;;15.20;;
9140;SDS011;46330;50.822;7.126;2023-12-07T08:52:11;21.08;;;11.68;;
9140;SDS011;46330;50.822;7.126;2023-12-07T08:54:58;24.30;;;12.77;;
9140;SDS011;46330;50.822;7.126;2023-12-07T08:57:26;21.40;;;11.65;;
9140;SDS011;46330;50.822;7.126;2023-12-07T08:59:54;18.33;;;11.00;;
9140;SDS011;46330;50.822;7.126;2023-12-07T09:02:22;21.52;;;12.50;;
9140;SDS011;46330;50.822;7.126;2023-12-07T09:07:35;18.85;;;11.02;;
9140;SDS011;46330;50.822;7.126;2023-12-07T09:10:05;22.00;;;11.52;;
9140;SDS011;46330;50.822;7.126;2023-12-07T09:12:35;19.35;;;11.68;;
9140;SDS011;46330;50.822;7.126;2023-12-07T09:15:06;21.83;;;12.73;;
9140;SDS011;46330;50.822;7.126;2023-12-07T09:17:37;19.80;;;11.70;;
9140;SDS011;46330;50.822;7.126;2023-12-07T09:20:07;23.30;;;12.70;;
9140;SDS011;46330;50.822;7.126;2023-12-07T09:22:40;21.80;;;11.95;;
9140;SDS011;46330;50.822;7.126;2023-12-07T09:25:11;19.92;;;11.15;;
9140;SDS011;46330;50.822;7.126;2023-12-07T09:27:40;21.00;;;12.02;;
9140;SDS011;46330;50.822;7.126;2023-12-07T09:30:08;26.75;;;12.70;;
9140;SDS011;46330;50.822;7.126;2023-12-07T09:32:39;21.27;;;12.07;;
9140;SDS011;46330;50.822;7.126;2023-12-07T09:35:10;20.67;;;12.43;;
9140;SDS011;46330;50.822;7.126;2023-12-07T09:37:42;20.23;;;11.57;;
9140;SDS011;46330;50.822;7.126;2023-12-07T09:40:15;23.95;;;12.63;;
9140;SDS011;46330;50.822;7.126;2023-12-07T09:42:48;20.77;;;12.57;;
9140;SDS011;46330;50.822;7.126;2023-12-07T09:45:17;19.23;;;9.93;;
9140;SDS011;46330;50.822;7.126;2023-12-07T09:47:47;20.23;;;11.55;;
9140;SDS011;46330;50.822;7.126;2023-12-07T09:50:16;22.33;;;10.77;;
9140;SDS011;46330;50.822;7.126;2023-12-07T09:52:48;16.85;;;10.30;;
9140;SDS011;46330;50.822;7.126;2023-12-07T09:55:31;18.35;;;10.98;;
9140;SDS011;46330;50.822;7.126;2023-12-07T09:58:00;19.75;;;10.57;;
9140;SDS011;46330;50.822;7.126;2023-12-07T10:00:28;32.60;;;14.25;;
9140;SDS011;46330;50.822;7.126;2023-12-07T10:02:56;24.75;;;12.57;;
9140;SDS011;46330;50.822;7.126;2023-12-07T10:05:24;16.95;;;9.43;;
9140;SDS011;46330;50.822;7.126;2023-12-07T10:07:53;17.92;;;10.30;;
9140;SDS011;46330;50.822;7.126;2023-12-07T10:10:21;12.45;;;7.55;;
9140;SDS011;46330;50.822;7.126;2023-12-07T10:12:52;19.63;;;10.40;;
9140;SDS011;46330;50.822;7.126;2023-12-07T10:15:22;18.40;;;11.05;;
9140;SDS011;46330;50.822;7.126;2023-12-07T10:17:52;18.58;;;10.70;;
9140;SDS011;46330;50.822;7.126;2023-12-07T10:20:21;17.40;;;9.25;;
9140;SDS011;46330;50.822;7.126;2023-12-07T10:23:00;14.38;;;9.80;;
9140;SDS011;46330;50.822;7.126;2023-12-07T10:25:30;16.45;;;10.55;;
9140;SDS011;46330;50.822;7.126;2023-12-07T10:28:00;17.35;;;10.88;;
9140;SDS011;46330;50.822;7.126;2023-12-07T10:30:33;15.05;;;8.43;;
9140;SDS011;46330;50.822;7.126;2023-12-07T10:33:02;15.55;;;9.27;;
9140;SDS011;46330;50.822;7.126;2023-12-07T10:35:31;14.02;;;8.60;;
9140;SDS011;46330;50.822;7.126;2023-12-07T10:37:58;14.73;;;9.15;;
9140;SDS011;46330;50.822;7.126;2023-12-07T10:40:27;18.98;;;9.38;;
9140;SDS011;46330;50.822;7.126;2023-12-07T10:42:56;15.52;;;8.70;;
9140;SDS011;46330;50.822;7.126;2023-12-07T10:45:28;14.35;;;7.97;;
9140;SDS011;46330;50.822;7.126;2023-12-07T10:47:58;13.70;;;7.70;;
9140;SDS011;46330;50.822;7.126;2023-12-07T10:50:32;11.20;;;6.35;;
9140;SDS011;46330;50.822;7.126;2023-12-07T10:53:04;13.23;;;7.75;;
9140;SDS011;46330;50.822;7.126;2023-12-07T10:55:37;11.48;;;7.30;;
9140;SDS011;46330;50.822;7.126;2023-12-07T10:58:11;8.75;;;4.95;;
9140;SDS011;46330;50.822;7.126;2023-12-07T11:00:42;12.40;;;7.07;;
9140;SDS011;46330;50.822;7.126;2023-12-07T11:03:14;12.38;;;6.60;;
9140;SDS011;46330;50.822;7.126;2023-12-07T11:05:45;11.30;;;7.20;;
9140;SDS011;46330;50.822;7.126;2023-12-07T11:08:16;16.63;;;7.85;;
9140;SDS011;46330;50.822;7.126;2023-12-07T11:10:50;13.95;;;7.80;;
9140;SDS011;46330;50.822;7.126;2023-12-07T11:13:27;12.50;;;5.75;;
9140;SDS011;46330;50.822;7.126;2023-12-07T11:15:59;11.95;;;7.25;;
9140;SDS011;46330;50.822;7.126;2023-12-07T11:18:27;11.05;;;6.78;;
9140;SDS011;46330;50.822;7.126;2023-12-07T11:20:56;9.35;;;5.63;;
9140;SDS011;46330;50.822;7.126;2023-12-07T11:23:26;11.82;;;6.25;;
9140;SDS011;46330;50.822;7.126;2023-12-07T11:25:55;12.20;;;7.15;;
9140;SDS011;46330;50.822;7.126;2023-12-07T11:28:33;15.32;;;8.07;;
9140;SDS011;46330;50.822;7.126;2023-12-07T11:31:04;16.52;;;6.65;;
9140;SDS011;46330;50.822;7.126;2023-12-07T11:33:34;18.65;;;8.65;;
9140;SDS011;46330;50.822;7.126;2023-12-07T11:36:06;11.90;;;7.22;;
9140;SDS011;46330;50.822;7.126;2023-12-07T11:38:35;12.98;;;7.50;;
9140;SDS011;46330;50.822;7.126;2023-12-07T11:41:04;10.88;;;7.28;;
9140;SDS011;46330;50.822;7.126;2023-12-07T11:46:23;10.73;;;6.28;;
9140;SDS011;46330;50.822;7.126;2023-12-07T11:48:51;9.35;;;6.22;;
9140;SDS011;46330;50.822;7.126;2023-12-07T11:51:19;10.55;;;6.93;;
9140;SDS011;46330;50.822;7.126;2023-12-07T11:53:47;13.80;;;6.90;;
9140;SDS011;46330;50.822;7.126;2023-12-07T11:56:16;10.90;;;6.45;;
9140;SDS011;46330;50.822;7.126;2023-12-07T11:58:48;9.95;;;6.28;;
9140;SDS011;46330;50.822;7.126;2023-12-07T12:01:17;8.88;;;5.47;;
9140;SDS011;46330;50.822;7.126;2023-12-07T12:03:47;9.43;;;5.70;;
9140;SDS011;46330;50.822;7.126;2023-12-07T12:06:14;9.25;;;5.78;;
9140;SDS011;46330;50.822;7.126;2023-12-07T12:08:44;8.98;;;5.22;;
9140;SDS011;46330;50.822;7.126;2023-12-07T12:11:12;6.75;;;4.40;;
9140;SDS011;46330;50.822;7.126;2023-12-07T12:13:40;6.60;;;4.68;;
9140;SDS011;46330;50.822;7.126;2023-12-07T12:16:08;11.00;;;5.50;;
9140;SDS011;46330;50.822;7.126;2023-12-07T12:18:36;10.65;;;6.07;;
9140;SDS011;46330;50.822;7.126;2023-12-07T12:21:07;8.98;;;5.55;;
9140;SDS011;46330;50.822;7.126;2023-12-07T12:23:36;11.10;;;6.28;;
9140;SDS011;46330;50.822;7.126;2023-12-07T12:26:06;8.18;;;5.00;;
9140;SDS011;46330;50.822;7.126;2023-12-07T12:28:37;10.57;;;5.85;;
9140;SDS011;46330;50.822;7.126;2023-12-07T12:31:09;10.50;;;5.43;;
9140;SDS011;46330;50.822;7.126;2023-12-07T12:33:39;9.95;;;6.00;;
9140;SDS011;46330;50.822;7.126;2023-12-07T12:36:09;10.73;;;5.93;;
9140;SDS011;46330;50.822;7.126;2023-12-07T12:38:38;11.10;;;6.38;;
9140;SDS011;46330;50.822;7.126;2023-12-07T12:41:10;9.60;;;5.30;;
9140;SDS011;46330;50.822;7.126;2023-12-07T12:43:39;5.25;;;3.25;;
9140;SDS011;46330;50.822;7.126;2023-12-07T12:46:10;10.60;;;5.65;;
9140;SDS011;46330;50.822;7.126;2023-12-07T12:48:52;12.60;;;6.13;;
9140;SDS011;46330;50.822;7.126;2023-12-07T12:51:23;10.10;;;5.47;;
9140;SDS011;46330;50.822;7.126;2023-12-07T12:53:52;10.13;;;5.65;;
9140;SDS011;46330;50.822;7.126;2023-12-07T12:56:21;9.75;;;6.15;;
9140;SDS011;46330;50.822;7.126;2023-12-07T12:58:49;8.07;;;5.35;;
9140;SDS011;46330;50.822;7.126;2023-12-07T13:01:18;9.15;;;6.15;;
9140;SDS011;46330;50.822;7.126;2023-12-07T13:03:47;15.65;;;6.22;;
9140;SDS011;46330;50.822;7.126;2023-12-07T13:06:15;12.05;;;6.47;;
9140;SDS011;46330;50.822;7.126;2023-12-07T13:11:25;8.93;;;5.90;;
9140;SDS011;46330;50.822;7.126;2023-12-07T13:13:54;10.57;;;6.28;;
9140;SDS011;46330;50.822;7.126;2023-12-07T13:16:22;10.43;;;5.90;;
9140;SDS011;46330;50.822;7.126;2023-12-07T13:18:51;8.02;;;4.90;;
9140;SDS011;46330;50.822;7.126;2023-12-07T13:21:20;9.00;;;5.88;;
9140;SDS011;46330;50.822;7.126;2023-12-07T13:23:48;7.88;;;5.28;;
9140;SDS011;46330;50.822;7.126;2023-12-07T13:26:18;9.13;;;6.30;;
9140;SDS011;46330;50.822;7.126;2023-12-07T13:28:47;11.10;;;5.90;;
9140;SDS011;46330;50.822;7.126;2023-12-07T13:31:14;11.68;;;5.07;;
9140;SDS011;46330;50.822;7.126;2023-12-07T13:33:42;6.70;;;4.03;;
9140;SDS011;46330;50.822;7.126;2023-12-07T13:36:21;9.38;;;5.28;;
9140;SDS011;46330;50.822;7.126;2023-12-07T13:38:52;9.38;;;5.38;;
9140;SDS011;46330;50.822;7.126;2023-12-07T13:41:21;9.82;;;5.68;;
9140;SDS011;46330;50.822;7.126;2023-12-07T13:43:49;6.90;;;4.85;;
9140;SDS011;46330;50.822;7.126;2023-12-07T13:46:20;10.35;;;6.35;;
9140;SDS011;46330;50.822;7.126;2023-12-07T13:48:48;11.45;;;6.38;;
9140;SDS011;46330;50.822;7.126;2023-12-07T13:51:16;9.00;;;5.25;;
9140;SDS011;46330;50.822;7.126;2023-12-07T13:53:44;12.40;;;6.43;;
9140;SDS011;46330;50.822;7.126;2023-12-07T13:56:12;10.68;;;6.10;;
9140;SDS011;46330;50.822;7.126;2023-12-07T13:58:42;11.25;;;6.00;;
9140;SDS011;46330;50.822;7.126;2023-12-07T14:01:10;12.40;;;6.10;;
9140;SDS011;46330;50.822;7.126;2023-12-07T14:03:38;10.68;;;5.70;;
9140;SDS011;46330;50.822;7.126;2023-12-07T14:06:06;11.68;;;6.82;;
9140;SDS011;46330;50.822;7.126;2023-12-07T14:08:47;7.88;;;4.53;;
9140;SDS011;46330;50.822;7.126;2023-12-07T14:11:15;10.75;;;6.15;;
9140;SDS011;46330;50.822;7.126;2023-12-07T14:13:45;9.80;;;5.22;;
9140;SDS011;46330;50.822;7.126;2023-12-07T14:16:14;9.43;;;5.50;;
9140;SDS011;46330;50.822;7.126;2023-12-07T14:18:55;12.63;;;6.93;;
9140;SDS011;46330;50.822;7.126;2023-12-07T14:21:40;9.95;;;6.13;;
9140;SDS011;46330;50.822;7.126;2023-12-07T14:24:21;8.90;;;4.97;;
9140;SDS011;46330;50.822;7.126;2023-12-07T14:26:49;9.32;;;6.25;;
9140;SDS011;46330;50.822;7.126;2023-12-07T14:29:18;11.48;;;6.47;;
9140;SDS011;46330;50.822;7.126;2023-12-07T14:34:20;9.45;;;5.53;;
9140;SDS011;46330;50.822;7.126;2023-12-07T14:37:00;10.18;;;6.40;;
9140;SDS011;46330;50.822;7.126;2023-12-07T14:39:29;11.38;;;6.70;;
9140;SDS011;46330;50.822;7.126;2023-12-07T14:41:57;10.68;;;6.82;;
9140;SDS011;46330;50.822;7.126;2023-12-07T14:44:26;10.90;;;6.55;;
9140;SDS011;46330;50.822;7.126;2023-12-07T14:46:56;11.75;;;7.35;;
9140;SDS011;46330;50.822;7.126;2023-12-07T14:49:24;11.73;;;7.13;;
9140;SDS011;46330;50.822;7.126;2023-12-07T14:51:54;9.35;;;5.63;;
9140;SDS011;46330;50.822;7.126;2023-12-07T14:54:25;12.80;;;7.05;;
9140;SDS011;46330;50.822;7.126;2023-12-07T14:56:56;10.23;;;5.70;;
9140;SDS011;46330;50.822;7.126;2023-12-07T14:59:24;10.82;;;5.90;;
9140;SDS011;46330;50.822;7.126;2023-12-07T15:01:54;8.32;;;4.78;;
9140;SDS011;46330;50.822;7.126;2023-12-07T15:04:22;13.20;;;6.18;;
9140;SDS011;46330;50.822;7.126;2023-12-07T15:06:59;13.02;;;7.30;;